createdAt,value
2018-07-06T00:01:55.333Z,101152.66
2018-07-06T00:04:34.663Z,101154.02
2018-07-06T00:07:15.710Z,101151.95
2018-07-06T00:09:55.227Z,101146.66
2018-07-06T00:12:34.540Z,101152.11
2018-07-06T00:15:15.501Z,101147.38
2018-07-06T00:17:55.212Z,101149.88
2018-07-06T00:20:34.552Z,101147.47
2018-07-06T00:23:15.484Z,101151.66
2018-07-06T00:25:55.061Z,101152.47
2018-07-06T00:28:34.648Z,101155.25
2018-07-06T00:31:15.738Z,101145.70
2018-07-06T00:33:55.364Z,101151.41
2018-07-06T00:36:34.868Z,101154.57
2018-07-06T00:39:15.646Z,101159.30
2018-07-06T00:41:55.413Z,101158.38
2018-07-06T00:44:34.861Z,101157.22
2018-07-06T00:47:15.718Z,101152.69
2018-07-06T00:49:55.355Z,101166.66
2018-07-06T00:52:34.693Z,101155.58
2018-07-06T00:55:15.267Z,101160.66
2018-07-06T00:57:54.836Z,101163.78
2018-07-06T01:00:34.160Z,101167.61
2018-07-06T01:03:13.796Z,101169.41
2018-07-06T01:05:53.304Z,101173.73
2018-07-06T01:08:32.752Z,101176.74
2018-07-06T01:11:12.373Z,101181.27
2018-07-06T01:13:51.800Z,101178.15
2018-07-06T01:16:31.464Z,101174.75
2018-07-06T01:19:11.304Z,101170.58
2018-07-06T01:21:50.768Z,101165.94
2018-07-06T01:24:30.540Z,101171.34
2018-07-06T01:27:10.551Z,101177.08
2018-07-06T01:29:50.397Z,101178.59
2018-07-06T01:32:29.825Z,101184.72
2018-07-06T01:35:09.448Z,101175.55
2018-07-06T01:37:48.853Z,101182.72
2018-07-06T01:40:28.637Z,101187.67
2018-07-06T01:43:08.436Z,101186.88
2018-07-06T01:45:47.856Z,101181.47
2018-07-06T01:48:27.668Z,101175.22
2018-07-06T01:51:07.470Z,101177.14
2018-07-06T01:53:47.161Z,101173.58
2018-07-06T01:56:26.885Z,101180.73
2018-07-06T01:59:06.610Z,101178.41
2018-07-06T02:01:46.234Z,101182.70
2018-07-06T02:04:25.595Z,101177.61
2018-07-06T02:07:05.388Z,101183.25
2018-07-06T02:09:44.877Z,101182.86
2018-07-06T02:12:24.515Z,101174.94
2018-07-06T02:15:04.297Z,101178.91
2018-07-06T02:17:43.617Z,101173.30
2018-07-06T02:20:23.541Z,101174.83
2018-07-06T02:23:03.609Z,101176.83
2018-07-06T02:25:43.237Z,101176.19
2018-07-06T02:28:22.678Z,101181.55
2018-07-06T02:31:02.419Z,101183.46
2018-07-06T02:33:41.888Z,101179.94
2018-07-06T02:36:21.712Z,101183.38
2018-07-06T02:39:01.393Z,101184.38
2018-07-06T02:41:40.785Z,101190.66
2018-07-06T02:44:20.401Z,101182.70
2018-07-06T02:47:00.262Z,101181.05
2018-07-06T02:49:39.764Z,101185.88
2018-07-06T02:52:19.428Z,101193.03
2018-07-06T02:54:59.257Z,101191.53
2018-07-06T02:57:38.943Z,101193.45
2018-07-06T03:00:18.927Z,101195.69
2018-07-06T03:02:58.440Z,101195.36
2018-07-06T03:05:37.955Z,101202.50
2018-07-06T03:08:17.796Z,101202.20
2018-07-06T03:10:57.605Z,101206.53
2018-07-06T03:13:37.125Z,101204.75
2018-07-06T03:16:16.757Z,101203.91
2018-07-06T03:18:56.632Z,101197.58
2018-07-06T03:21:35.918Z,101200.47
2018-07-06T03:24:15.820Z,101204.39
2018-07-06T03:26:55.546Z,101199.25
2018-07-06T03:29:34.925Z,101197.23
2018-07-06T03:32:15.881Z,101202.20
2018-07-06T03:34:55.576Z,101196.95
2018-07-06T03:37:35.033Z,101209.20
2018-07-06T03:40:15.701Z,101202.44
2018-07-06T03:42:55.188Z,101205.39
2018-07-06T03:45:34.570Z,101208.40
2018-07-06T03:48:14.121Z,101207.65
2018-07-06T03:50:53.573Z,101216.73
2018-07-06T03:53:33.141Z,101216.82
2018-07-06T03:56:12.884Z,101220.39
2018-07-06T03:58:52.697Z,101228.18
2018-07-06T04:01:32.060Z,101231.24
2018-07-06T04:04:11.658Z,101233.64
2018-07-06T04:06:51.271Z,101237.54
2018-07-06T04:09:30.815Z,101233.52
2018-07-06T04:12:10.665Z,101239.97
2018-07-06T04:14:50.362Z,101233.73
2018-07-06T04:17:30.167Z,101242.48
2018-07-06T04:20:09.894Z,101236.71
2018-07-06T04:22:49.657Z,101247.48
2018-07-06T04:25:29.189Z,101244.06
2018-07-06T04:28:08.797Z,101246.23
2018-07-06T04:30:48.468Z,101240.27
2018-07-06T04:33:28.273Z,101239.80
2018-07-06T04:36:07.945Z,101243.16
2018-07-06T04:38:47.646Z,101240.44
2018-07-06T04:41:27.453Z,101241.28
2018-07-06T04:44:07.025Z,101245.81
2018-07-06T04:46:46.824Z,101249.05
2018-07-06T04:49:26.292Z,101253.59
2018-07-06T04:52:06.005Z,101249.98
2018-07-06T04:54:45.864Z,101245.00
2018-07-06T04:57:25.866Z,101251.16
2018-07-06T05:00:05.193Z,101251.63
2018-07-06T05:02:44.672Z,101259.08
2018-07-06T05:05:24.340Z,101257.91
2018-07-06T05:08:03.721Z,101257.91
2018-07-06T05:10:43.212Z,101255.44
2018-07-06T05:13:22.908Z,101257.63
2018-07-06T05:16:02.369Z,101255.26
2018-07-06T05:18:41.793Z,101253.03
2018-07-06T05:21:21.645Z,101249.97
2018-07-06T05:24:01.124Z,101254.95
2018-07-06T05:26:40.751Z,101255.56
2018-07-06T05:29:20.157Z,101253.84
2018-07-06T05:31:59.976Z,101263.45
2018-07-06T05:34:40.209Z,101264.66
2018-07-06T05:37:19.873Z,101263.38
2018-07-06T05:40:00.066Z,101268.23
2018-07-06T05:42:39.731Z,101260.51
2018-07-06T05:45:19.650Z,101265.16
2018-07-06T05:47:59.018Z,101257.82
2018-07-06T05:50:38.926Z,101262.83
2018-07-06T05:53:18.396Z,101271.91
2018-07-06T05:55:58.104Z,101270.06
2018-07-06T05:58:37.484Z,101280.35
2018-07-06T06:01:17.211Z,101287.89
2018-07-06T06:03:57.049Z,101289.33
2018-07-06T06:06:36.437Z,101289.36
2018-07-06T06:09:04.849Z,101290.52
2018-07-06T06:11:33.284Z,101295.19
2018-07-06T06:14:01.668Z,101297.91
2018-07-06T06:16:29.802Z,101299.12
2018-07-06T06:18:58.199Z,101302.69
2018-07-06T06:21:26.833Z,101301.13
2018-07-06T06:23:55.016Z,101309.50
2018-07-06T06:26:28.609Z,101305.84
2018-07-06T06:28:57.141Z,101300.52
2018-07-06T06:31:26.413Z,101306.38
2018-07-06T06:33:55.183Z,101316.78
2018-07-06T06:36:23.916Z,101315.52
2018-07-06T06:38:52.013Z,101316.77
2018-07-06T06:41:20.546Z,101317.55
2018-07-06T06:43:49.536Z,101321.64
2018-07-06T06:46:17.926Z,101321.12
2018-07-06T06:48:46.062Z,101329.38
2018-07-06T06:51:14.236Z,101329.58
2018-07-06T06:53:42.864Z,101324.04
2018-07-06T06:56:11.374Z,101327.19
2018-07-06T06:58:40.235Z,101331.74
2018-07-06T07:01:08.932Z,101326.30
2018-07-06T07:03:37.256Z,101330.83
2018-07-06T07:06:05.645Z,101333.80
2018-07-06T07:08:34.017Z,101339.15
2018-07-06T07:11:02.461Z,101337.95
2018-07-06T07:13:31.629Z,101337.88
2018-07-06T07:15:59.944Z,101345.30
2018-07-06T07:18:28.097Z,101343.42
2018-07-06T07:20:56.852Z,101341.48
2018-07-06T07:23:25.269Z,101346.84
2018-07-06T07:25:54.215Z,101353.30
2018-07-06T07:28:22.569Z,101348.53
2018-07-06T07:30:50.776Z,101350.12
2018-07-06T07:33:19.148Z,101342.07
2018-07-06T07:35:47.632Z,101363.86
2018-07-06T07:38:16.617Z,101361.33
2018-07-06T07:40:45.317Z,101357.95
2018-07-06T07:43:13.425Z,101356.81
2018-07-06T07:45:42.136Z,101361.55
2018-07-06T07:48:10.577Z,101361.09
2018-07-06T07:50:49.005Z,101363.69
2018-07-06T07:53:28.557Z,101368.36
2018-07-06T07:55:56.960Z,101365.63
2018-07-06T07:58:25.525Z,101365.36
2018-07-06T08:00:54.377Z,101367.20
2018-07-06T08:03:23.116Z,101374.58
2018-07-06T08:05:51.749Z,101371.19
2018-07-06T08:08:20.141Z,101368.17
2018-07-06T08:10:48.236Z,101370.38
2018-07-06T08:13:16.917Z,101376.13
2018-07-06T08:15:45.349Z,101377.66
2018-07-06T08:18:13.799Z,101372.56
2018-07-06T08:20:42.469Z,101374.83
2018-07-06T08:23:10.936Z,101379.52
2018-07-06T08:25:39.802Z,101385.36
2018-07-06T08:28:08.309Z,101375.64
2018-07-06T08:30:37.272Z,101384.59
2018-07-06T08:33:05.772Z,101386.88
2018-07-06T08:35:45.421Z,101388.84
2018-07-06T08:38:13.549Z,101378.19
2018-07-06T08:40:42.556Z,101387.42
2018-07-06T08:43:11.347Z,101383.98
2018-07-06T08:45:40.256Z,101393.66
2018-07-06T08:48:09.486Z,101397.54
2018-07-06T08:50:37.573Z,101392.64
2018-07-06T08:53:06.546Z,101393.70
2018-07-06T08:55:35.269Z,101397.06
2018-07-06T08:58:03.389Z,101404.69
2018-07-06T09:00:32.545Z,101397.80
2018-07-06T09:03:00.669Z,101411.78
2018-07-06T09:05:29.642Z,101406.80
2018-07-06T09:07:58.432Z,101409.22
2018-07-06T09:10:26.869Z,101417.13
2018-07-06T09:12:55.401Z,101415.76
2018-07-06T09:15:24.333Z,101418.80
2018-07-06T09:17:52.793Z,101422.18
2018-07-06T09:20:21.510Z,101431.46
2018-07-06T09:22:50.677Z,101431.77
2018-07-06T09:25:19.763Z,101429.97
2018-07-06T09:27:48.417Z,101422.31
2018-07-06T09:30:17.157Z,101422.59
2018-07-06T09:32:45.765Z,101432.31
2018-07-06T09:35:14.714Z,101430.40
2018-07-06T09:37:43.459Z,101423.63
2018-07-06T09:40:11.976Z,101421.34
2018-07-06T09:42:40.516Z,101422.48
2018-07-06T09:45:09.226Z,101424.19
2018-07-06T09:47:37.656Z,101419.40
2018-07-06T09:50:06.629Z,101423.52
2018-07-06T09:52:35.372Z,101418.91
2018-07-06T09:55:04.128Z,101419.39
2018-07-06T09:57:32.221Z,101413.40
2018-07-06T10:00:00.596Z,101420.42
2018-07-06T10:02:28.701Z,101417.67
2018-07-06T10:04:56.811Z,101415.96
2018-07-06T10:07:25.495Z,101421.18
2018-07-06T10:09:54.200Z,101412.30
2018-07-06T10:12:23.080Z,101410.09
2018-07-06T10:14:51.604Z,101401.20
2018-07-06T10:17:20.069Z,101408.19
2018-07-06T10:19:48.294Z,101414.98
2018-07-06T10:22:16.996Z,101409.30
2018-07-06T10:24:45.617Z,101413.44
2018-07-06T10:27:14.350Z,101428.39
2018-07-06T10:29:52.408Z,101429.67
2018-07-06T10:32:24.976Z,101423.47
2018-07-06T10:34:53.308Z,101417.06
2018-07-06T10:37:21.844Z,101413.44
2018-07-06T10:39:51.079Z,101422.81
2018-07-06T10:42:19.474Z,101417.50
2018-07-06T10:44:47.909Z,101431.05
2018-07-06T10:47:16.646Z,101427.44
2018-07-06T10:49:45.326Z,101415.72
2018-07-06T10:52:14.949Z,101419.93
2018-07-06T10:54:44.002Z,101418.56
2018-07-06T10:57:12.722Z,101419.93
2018-07-06T10:59:41.177Z,101420.37
2018-07-06T11:02:09.750Z,101414.20
2018-07-06T11:04:38.349Z,101411.23
2018-07-06T11:07:07.013Z,101423.42
2018-07-06T11:09:35.419Z,101422.38
2018-07-06T11:12:03.810Z,101418.86
2018-07-06T11:14:32.705Z,101424.48
2018-07-06T11:17:00.817Z,101410.88
2018-07-06T11:19:29.674Z,101417.47
2018-07-06T11:21:57.777Z,101425.70
2018-07-06T11:24:26.369Z,101427.28
2018-07-06T11:26:55.009Z,101421.22
2018-07-06T11:29:23.645Z,101424.75
2018-07-06T11:31:52.096Z,101429.70
2018-07-06T11:34:20.940Z,101416.25
2018-07-06T11:36:49.056Z,101410.47
2018-07-06T11:39:17.668Z,101421.33
2018-07-06T11:41:45.801Z,101422.09
2018-07-06T11:44:13.892Z,101420.33
2018-07-06T11:46:42.321Z,101420.72
2018-07-06T11:49:10.716Z,101418.28
2018-07-06T11:51:38.857Z,101414.47
2018-07-06T11:54:07.304Z,101418.50
2018-07-06T11:56:35.796Z,101425.84
2018-07-06T11:59:04.250Z,101409.67
2018-07-06T12:01:32.803Z,101420.42
2018-07-06T12:04:01.123Z,101430.34
2018-07-06T12:06:29.618Z,101431.42
2018-07-06T12:08:57.917Z,101431.33
2018-07-06T12:11:26.365Z,101429.02
2018-07-06T12:13:54.769Z,101423.20
2018-07-06T12:16:23.476Z,101413.88
2018-07-06T12:18:52.022Z,101419.20
2018-07-06T12:21:21.039Z,101413.72
2018-07-06T12:23:49.545Z,101419.91
2018-07-06T12:26:18.096Z,101420.03
2018-07-06T12:28:46.537Z,101413.49
2018-07-06T12:31:15.288Z,101408.16
2018-07-06T12:33:43.997Z,101416.91
2018-07-06T12:36:12.922Z,101421.61
2018-07-06T12:38:41.398Z,101418.52
2018-07-06T12:41:10.243Z,101418.14
2018-07-06T12:43:38.564Z,101417.73
2018-07-06T12:46:07.365Z,101417.55
2018-07-06T12:48:36.038Z,101416.25
2018-07-06T12:51:06.050Z,101415.46
2018-07-06T12:53:34.541Z,101417.81
2018-07-06T12:56:03.180Z,101412.08
2018-07-06T12:58:31.949Z,101422.30
2018-07-06T13:01:00.485Z,101415.59
2018-07-06T13:03:28.685Z,101415.75
2018-07-06T13:05:56.783Z,101415.00
2018-07-06T13:08:25.231Z,101406.89
2018-07-06T13:10:54.269Z,101418.06
2018-07-06T13:13:23.203Z,101416.25
2018-07-06T13:15:51.572Z,101421.89
2018-07-06T13:18:20.065Z,101418.88
2018-07-06T13:20:48.951Z,101423.67
2018-07-06T13:23:17.852Z,101417.97
2018-07-06T13:25:46.362Z,101413.34
2018-07-06T13:28:15.505Z,101405.34
2018-07-06T13:30:43.753Z,101418.47
2018-07-06T13:33:11.892Z,101417.72
2018-07-06T13:35:40.069Z,101423.27
2018-07-06T13:38:08.179Z,101418.81
2018-07-06T13:40:36.909Z,101427.89
2018-07-06T13:43:06.553Z,101416.94
2018-07-06T13:45:35.443Z,101424.90
2018-07-06T13:48:03.809Z,101421.61
2018-07-06T13:50:32.252Z,101423.73
2018-07-06T13:53:00.866Z,101429.28
2018-07-06T13:55:30.089Z,101425.12
2018-07-06T13:57:58.725Z,101433.25
2018-07-06T14:00:27.368Z,101428.52
2018-07-06T14:02:56.120Z,101430.86
2018-07-06T14:05:24.792Z,101425.80
2018-07-06T14:07:53.237Z,101430.47
2018-07-06T14:10:21.315Z,101438.45
2018-07-06T14:12:49.701Z,101429.75
2018-07-06T14:15:18.430Z,101430.95
2018-07-06T14:17:47.116Z,101433.45
2018-07-06T14:20:15.933Z,101430.96
2018-07-06T14:22:44.108Z,101430.45
2018-07-06T14:25:12.685Z,101425.88
2018-07-06T14:27:41.150Z,101435.53
2018-07-06T14:30:09.852Z,101429.30
2018-07-06T14:32:38.300Z,101430.80
2018-07-06T14:35:06.745Z,101428.23
2018-07-06T14:37:35.281Z,101426.92
2018-07-06T14:40:03.713Z,101438.19
2018-07-06T14:42:32.270Z,101437.83
2018-07-06T14:45:01.181Z,101436.56
2018-07-06T14:47:29.665Z,101437.17
2018-07-06T14:49:58.225Z,101437.81
2018-07-06T14:52:26.902Z,101445.63
2018-07-06T14:54:55.573Z,101434.96
2018-07-06T14:57:24.432Z,101437.87
2018-07-06T14:59:53.545Z,101448.97
2018-07-06T15:02:22.633Z,101440.64
2018-07-06T15:04:51.185Z,101439.95
2018-07-06T15:07:19.277Z,101444.42
2018-07-06T15:09:47.696Z,101440.69
2018-07-06T15:12:16.423Z,101443.47
2018-07-06T15:14:45.408Z,101446.13
2018-07-06T15:17:13.726Z,101451.68
2018-07-06T15:19:42.369Z,101451.37
2018-07-06T15:22:10.708Z,101449.74
2018-07-06T15:24:39.635Z,101454.78
2018-07-06T15:27:08.636Z,101469.70
2018-07-06T15:29:37.052Z,101456.25
2018-07-06T15:32:06.397Z,101468.63
2018-07-06T15:34:34.828Z,101460.95
2018-07-06T15:37:03.273Z,101469.14
2018-07-06T15:39:31.709Z,101466.39
2018-07-06T15:42:00.569Z,101469.80
2018-07-06T15:44:29.263Z,101460.96
2018-07-06T15:46:57.564Z,101469.47
2018-07-06T15:49:26.379Z,101474.84
2018-07-06T15:51:54.812Z,101471.98
2018-07-06T15:54:23.537Z,101472.81
2018-07-06T15:56:51.965Z,101466.09
2018-07-06T15:59:20.665Z,101463.49
2018-07-06T16:01:49.326Z,101468.27
2018-07-06T16:04:18.041Z,101471.77
2018-07-06T16:06:46.157Z,101468.87
2018-07-06T16:09:14.529Z,101476.84
2018-07-06T16:11:42.958Z,101467.41
2018-07-06T16:14:11.755Z,101467.45
2018-07-06T16:16:40.124Z,101468.84
2018-07-06T16:19:08.418Z,101480.80
2018-07-06T16:21:37.085Z,101479.67
2018-07-06T16:24:06.524Z,101480.75
2018-07-06T16:26:34.967Z,101478.27
2018-07-06T16:29:03.937Z,101480.47
2018-07-06T16:31:32.472Z,101477.64
2018-07-06T16:34:01.435Z,101476.59
2018-07-06T16:36:29.977Z,101490.41
2018-07-06T16:38:58.918Z,101477.70
2018-07-06T16:41:27.568Z,101486.53
2018-07-06T16:43:55.721Z,101489.75
2018-07-06T16:46:24.297Z,101488.97
2018-07-06T16:48:52.748Z,101485.31
2018-07-06T16:51:21.168Z,101480.05
2018-07-06T16:53:49.853Z,101489.61
2018-07-06T16:56:18.932Z,101486.84
2018-07-06T16:58:47.633Z,101491.70
2018-07-06T17:01:16.492Z,101495.28
2018-07-06T17:03:44.600Z,101502.83
2018-07-06T17:06:12.976Z,101493.84
2018-07-06T17:08:41.580Z,101499.14
2018-07-06T17:11:10.265Z,101500.12
2018-07-06T17:13:38.696Z,101494.48
2018-07-06T17:16:07.461Z,101498.33
2018-07-06T17:18:35.562Z,101510.82
2018-07-06T17:21:03.943Z,101515.73
2018-07-06T17:23:32.933Z,101522.20
2018-07-06T17:26:01.726Z,101519.70
2018-07-06T17:28:30.188Z,101516.09
2018-07-06T17:30:58.534Z,101517.76
2018-07-06T17:33:26.971Z,101517.03
2018-07-06T17:35:55.389Z,101517.78
2018-07-06T17:38:24.002Z,101518.15
2018-07-06T17:40:52.629Z,101522.30
2018-07-06T17:43:21.297Z,101518.44
2018-07-06T17:45:49.460Z,101519.39
2018-07-06T17:48:18.101Z,101518.03
2018-07-06T17:50:46.622Z,101529.17
2018-07-06T17:53:15.051Z,101527.05
2018-07-06T17:55:43.805Z,101529.58
2018-07-06T17:58:12.532Z,101526.83
2018-07-06T18:00:41.149Z,101520.36
2018-07-06T18:03:09.534Z,101526.77
2018-07-06T18:05:37.661Z,101529.74
2018-07-06T18:08:07.041Z,101533.91
2018-07-06T18:10:35.664Z,101535.55
2018-07-06T18:13:03.752Z,101533.05
2018-07-06T18:15:32.173Z,101538.80
2018-07-06T18:18:00.709Z,101537.83
2018-07-06T18:20:29.040Z,101541.81
2018-07-06T18:22:57.453Z,101543.88
2018-07-06T18:25:26.341Z,101539.80
2018-07-06T18:27:54.430Z,101538.23
2018-07-06T18:30:22.848Z,101540.83
2018-07-06T18:32:51.185Z,101542.59
2018-07-06T18:35:19.842Z,101543.97
2018-07-06T18:37:48.005Z,101543.33
2018-07-06T18:40:16.693Z,101550.73
2018-07-06T18:42:45.059Z,101540.95
2018-07-06T18:45:13.656Z,101549.23
2018-07-06T18:47:42.184Z,101547.02
2018-07-06T18:50:11.011Z,101543.11
2018-07-06T18:52:39.416Z,101547.26
2018-07-06T18:55:07.678Z,101554.48
2018-07-06T18:57:36.112Z,101553.97
2018-07-06T19:00:04.541Z,101556.21
2018-07-06T19:02:32.969Z,101556.73
2018-07-06T19:05:01.418Z,101558.11
2018-07-06T19:07:29.877Z,101570.14
2018-07-06T19:09:58.457Z,101562.42
2018-07-06T19:12:26.677Z,101568.25
2018-07-06T19:14:55.374Z,101571.01
2018-07-06T19:17:24.065Z,101573.92
2018-07-06T19:19:53.532Z,101570.83
2018-07-06T19:22:21.777Z,101574.09
2018-07-06T19:24:50.246Z,101583.51
2018-07-06T19:27:18.722Z,101581.47
2018-07-06T19:29:47.272Z,101585.73
2018-07-06T19:32:16.058Z,101591.58
2018-07-06T19:34:44.513Z,101594.14
2018-07-06T19:37:13.137Z,101598.92
2018-07-06T19:39:41.785Z,101605.56
2018-07-06T19:42:10.197Z,101613.28
2018-07-06T19:44:39.021Z,101618.24
2018-07-06T19:47:07.989Z,101618.08
2018-07-06T19:49:36.107Z,101621.28
2018-07-06T19:52:04.554Z,101628.11
2018-07-06T19:54:33.172Z,101628.97
2018-07-06T19:57:02.989Z,101631.47
2018-07-06T19:59:31.626Z,101635.89
2018-07-06T20:02:00.070Z,101642.49
2018-07-06T20:04:28.179Z,101641.30
2018-07-06T20:06:56.874Z,101637.64
2018-07-06T20:09:25.337Z,101644.27
2018-07-06T20:11:53.968Z,101645.94
2018-07-06T20:14:22.406Z,101643.69
2018-07-06T20:16:51.008Z,101642.89
2018-07-06T20:19:19.147Z,101646.12
2018-07-06T20:21:48.001Z,101650.17
2018-07-06T20:24:16.437Z,101652.33
2018-07-06T20:26:44.761Z,101653.58
2018-07-06T20:29:13.473Z,101657.02
2018-07-06T20:31:42.204Z,101659.05
2018-07-06T20:34:10.925Z,101660.91
2018-07-06T20:36:39.429Z,101658.98
2018-07-06T20:39:07.952Z,101668.09
2018-07-06T20:41:36.073Z,101667.56
2018-07-06T20:44:04.528Z,101668.75
2018-07-06T20:46:33.095Z,101673.70
2018-07-06T20:49:01.526Z,101676.31
2018-07-06T20:51:30.747Z,101672.39
2018-07-06T20:53:59.246Z,101680.42
2018-07-06T20:56:28.061Z,101681.43
2018-07-06T20:58:56.484Z,101685.19
2018-07-06T21:01:25.237Z,101686.07
2018-07-06T21:03:54.084Z,101680.00
2018-07-06T21:06:22.568Z,101692.44
2018-07-06T21:08:51.141Z,101694.28
2018-07-06T21:11:19.265Z,101696.93
2018-07-06T21:13:47.739Z,101702.19
2018-07-06T21:16:16.201Z,101706.16
2018-07-06T21:18:44.597Z,101705.93
2018-07-06T21:21:13.159Z,101701.81
2018-07-06T21:23:41.284Z,101702.90
2018-07-06T21:26:09.721Z,101705.01
2018-07-06T21:28:38.188Z,101707.99
2018-07-06T21:31:07.096Z,101705.95
2018-07-06T21:33:36.045Z,101718.95
2018-07-06T21:36:04.498Z,101712.95
2018-07-06T21:38:33.237Z,101718.84
2018-07-06T21:41:01.661Z,101722.33
2018-07-06T21:43:30.201Z,101725.25
2018-07-06T21:45:58.849Z,101719.80
2018-07-06T21:48:26.977Z,101726.81
2018-07-06T21:50:55.065Z,101726.16
2018-07-06T21:53:23.840Z,101724.33
2018-07-06T21:55:52.121Z,101727.16
2018-07-06T21:58:20.244Z,101731.24
2018-07-06T22:00:48.684Z,101726.36
2018-07-06T22:03:17.481Z,101720.12
2018-07-06T22:05:45.873Z,101718.88
2018-07-06T22:08:14.549Z,101722.41
2018-07-06T22:10:43.307Z,101722.98
2018-07-06T22:13:11.676Z,101723.45
2018-07-06T22:15:45.353Z,101720.03
2018-07-06T22:18:15.278Z,101721.84
2018-07-06T22:20:44.545Z,101724.61
2018-07-06T22:23:13.260Z,101722.97
2018-07-06T22:25:41.369Z,101723.62
2018-07-06T22:28:09.712Z,101729.80
2018-07-06T22:30:38.204Z,101729.68
2018-07-06T22:33:07.544Z,101730.09
2018-07-06T22:35:36.320Z,101727.25
2018-07-06T22:38:04.500Z,101724.69
2018-07-06T22:40:33.264Z,101730.99
2018-07-06T22:43:01.710Z,101726.89
2018-07-06T22:45:30.349Z,101726.53
2018-07-06T22:47:58.801Z,101726.89
2018-07-06T22:50:26.908Z,101717.59
2018-07-06T22:52:55.368Z,101718.64
2018-07-06T22:55:23.825Z,101721.18
2018-07-06T22:57:52.139Z,101724.02
2018-07-06T23:00:20.266Z,101730.53
2018-07-06T23:02:48.749Z,101724.78
2018-07-06T23:05:18.766Z,101731.83
2018-07-06T23:07:47.149Z,101726.94
2018-07-06T23:10:15.377Z,101725.09
2018-07-06T23:12:43.667Z,101732.33
2018-07-06T23:15:12.219Z,101732.82
2018-07-06T23:17:40.308Z,101736.61
2018-07-06T23:20:08.934Z,101733.99
2018-07-06T23:22:47.157Z,101732.06
2018-07-06T23:25:15.602Z,101735.71
2018-07-06T23:27:44.139Z,101731.43
2018-07-06T23:30:12.853Z,101736.55
2018-07-06T23:32:41.849Z,101738.49
2018-07-06T23:35:10.557Z,101735.81
2018-07-06T23:37:38.992Z,101729.41
2018-07-06T23:40:07.762Z,101731.41
2018-07-06T23:42:36.400Z,101734.86
2018-07-06T23:45:04.545Z,101735.33
2018-07-06T23:47:33.161Z,101734.00
2018-07-06T23:50:01.262Z,101730.40
2018-07-06T23:52:29.414Z,101739.66
2018-07-06T23:54:57.839Z,101736.19
2018-07-06T23:57:26.452Z,101732.39
2018-07-06T23:59:55.238Z,101744.83
